This is the latest recevied weather packets stored in our database for station/object K5WNG. If no packets are shown the sender has not sent any weather packets the latest 10 day(s).
| Time | Temp. | Humidity | Pressure | Rain* | Wind** | Luminosity | Snow |
|---|---|---|---|---|---|---|---|
| 1777811421 | 12.78° C | 82% | 1022 hPa | 0 mm | - | 29 W/m² | - |
| 1777810524 | 12.22° C | 83% | 1022 hPa | 0 mm | - | 20 W/m² | - |
| 1777810225 | 12.22° C | 83% | 1021.9 hPa | 0 mm | - | 16 W/m² | - |
| 1777809922 | 12.22° C | 84% | 1021.8 hPa | 0 mm | - | 12 W/m² | - |
| 1777809322 | 11.67° C | 85% | 1021.7 hPa | 0 mm | - | 6 W/m² | - |
| 1777806627 | 12.22° C | 84% | 1021.4 hPa | 0 mm | - | 0 W/m² | - |
| 1777806023 | 11.67° C | 86% | 1021.4 hPa | 0 mm | - | 0 W/m² | - |
| 1777804523 | 11.11° C | 90% | 1021.1 hPa | 0 mm | - | 0 W/m² | - |
| 1777804226 | 11.11° C | 92% | 1021.1 hPa | 0 mm | - | 0 W/m² | - |
| 1777803026 | 11.11° C | 93% | 1020.9 hPa | 0 mm | - | 0 W/m² | - |
| 1777802726 | 11.11° C | 93% | 1020.9 hPa | 0 mm | - | 0 W/m² | - |
| 1777802427 | 11.11° C | 93% | 1021 hPa | 0 mm | - | 0 W/m² | - |
| 1777802128 | 11.11° C | 93% | 1021 hPa | 0 mm | - | 0 W/m² | - |
| 1777801223 | 11.67° C | 91% | 1021.1 hPa | 0 mm | - | 0 W/m² | - |
| 1777800924 | 11.67° C | 90% | 1021.1 hPa | 0 mm | - | 0 W/m² | - |
| 1777800627 | 11.67° C | 90% | 1021 hPa | 0 mm | - | 0 W/m² | - |
| 1777800324 | 11.67° C | 89% | 1021 hPa | 0 mm | - | 0 W/m² | - |
| 1777800028 | 11.67° C | 89% | 1020.9 hPa | 0 mm | - | 0 W/m² | - |
| 1777799727 | 11.67° C | 89% | 1020.9 hPa | 0 mm | - | 0 W/m² | - |
| 1777799424 | 11.67° C | 88% | 1020.9 hPa | 0 mm | - | 0 W/m² | - |
| 1777799127 | 11.67° C | 88% | 1020.9 hPa | 0 mm | - | 0 W/m² | - |
| 1777798824 | 11.67° C | 87% | 1020.9 hPa | 0 mm | - | 0 W/m² | - |
| 1777798524 | 11.67° C | 87% | 1021 hPa | 0 mm | - | 0 W/m² | - |
| 1777798229 | 11.67° C | 87% | 1021 hPa | 0 mm | - | 0 W/m² | - |
| 1777797627 | 11.67° C | 86% | 1021.1 hPa | 0 mm | - | 0 W/m² | - |
* Rain latest hour (hover to see other rain measurements)
** Current wind speed in m/s (hover to see current wind gust speed)